sensor_id;sensor_type;location;lat;lon;timestamp;pressure;altitude;pressure_sealevel;temperature;humidity
78800;BME280;68148;55.328;86.106;2023-06-26T00:00:31;99571.44;;;12.44;72.69
78800;BME280;68148;55.328;86.106;2023-06-26T00:02:56;99569.63;;;12.51;72.33
78800;BME280;68148;55.328;86.106;2023-06-26T00:05:22;99579.00;;;12.60;72.29
78800;BME280;68148;55.328;86.106;2023-06-26T00:07:48;99577.38;;;12.59;73.15
78800;BME280;68148;55.328;86.106;2023-06-26T00:10:14;99573.50;;;12.55;72.82
78800;BME280;68148;55.328;86.106;2023-06-26T00:12:40;99574.50;;;12.61;73.00
78800;BME280;68148;55.328;86.106;2023-06-26T00:15:06;99576.53;;;12.65;73.16
78800;BME280;68148;55.328;86.106;2023-06-26T00:17:33;99581.00;;;12.71;73.20
78800;BME280;68148;55.328;86.106;2023-06-26T00:20:00;99579.19;;;12.78;72.67
78800;BME280;68148;55.328;86.106;2023-06-26T00:22:25;99583.06;;;12.89;72.23
78800;BME280;68148;55.328;86.106;2023-06-26T00:24:51;99580.41;;;12.96;72.18
78800;BME280;68148;55.328;86.106;2023-06-26T00:27:17;99578.75;;;13.01;71.75
78800;BME280;68148;55.328;86.106;2023-06-26T00:29:43;99584.69;;;13.03;71.49
78800;BME280;68148;55.328;86.106;2023-06-26T00:32:09;99585.50;;;13.04;71.54
78800;BME280;68148;55.328;86.106;2023-06-26T00:34:34;99580.19;;;13.11;71.56
78800;BME280;68148;55.328;86.106;2023-06-26T00:37:00;99586.28;;;13.18;71.25
78800;BME280;68148;55.328;86.106;2023-06-26T00:39:26;99584.44;;;13.32;71.19
78800;BME280;68148;55.328;86.106;2023-06-26T00:41:51;99586.25;;;13.44;70.26
78800;BME280;68148;55.328;86.106;2023-06-26T00:44:17;99584.56;;;13.57;70.03
78800;BME280;68148;55.328;86.106;2023-06-26T00:46:43;99588.03;;;13.70;69.31
78800;BME280;68148;55.328;86.106;2023-06-26T00:49:09;99584.34;;;13.65;69.75
78800;BME280;68148;55.328;86.106;2023-06-26T00:51:35;99584.34;;;13.71;70.02
78800;BME280;68148;55.328;86.106;2023-06-26T00:54:01;99587.81;;;13.65;70.57
78800;BME280;68148;55.328;86.106;2023-06-26T00:56:30;99593.50;;;13.69;70.25
78800;BME280;68148;55.328;86.106;2023-06-26T00:58:56;99602.03;;;13.77;70.32
78800;BME280;68148;55.328;86.106;2023-06-26T01:01:22;99603.19;;;14.01;69.52
78800;BME280;68148;55.328;86.106;2023-06-26T01:03:48;99599.66;;;14.08;69.50
78800;BME280;68148;55.328;86.106;2023-06-26T01:06:15;99601.97;;;13.97;69.66
78800;BME280;68148;55.328;86.106;2023-06-26T01:08:41;99601.50;;;14.07;69.15
78800;BME280;68148;55.328;86.106;2023-06-26T01:11:08;99605.13;;;14.13;68.89
78800;BME280;68148;55.328;86.106;2023-06-26T01:13:34;99604.38;;;14.06;68.80
78800;BME280;68148;55.328;86.106;2023-06-26T01:16:01;99601.72;;;14.06;68.84
78800;BME280;68148;55.328;86.106;2023-06-26T01:18:32;99602.72;;;14.04;69.17
78800;BME280;68148;55.328;86.106;2023-06-26T01:20:58;99604.16;;;14.07;68.94
78800;BME280;68148;55.328;86.106;2023-06-26T01:29:02;99614.13;;;14.18;68.81
78800;BME280;68148;55.328;86.106;2023-06-26T01:31:30;99607.72;;;14.26;68.11
78800;BME280;68148;55.328;86.106;2023-06-26T01:33:58;99611.66;;;14.17;68.74
78800;BME280;68148;55.328;86.106;2023-06-26T01:36:25;99609.56;;;14.25;67.40
78800;BME280;68148;55.328;86.106;2023-06-26T01:38:51;99608.09;;;14.36;67.58
78800;BME280;68148;55.328;86.106;2023-06-26T01:41:18;99608.84;;;14.50;67.17
78800;BME280;68148;55.328;86.106;2023-06-26T01:49:14;99608.72;;;14.95;66.67
78800;BME280;68148;55.328;86.106;2023-06-26T01:51:46;99609.06;;;14.98;66.66
78800;BME280;68148;55.328;86.106;2023-06-26T01:54:18;99614.19;;;15.18;65.91
78800;BME280;68148;55.328;86.106;2023-06-26T01:56:45;99611.31;;;15.20;65.75
78800;BME280;68148;55.328;86.106;2023-06-26T01:59:14;99605.94;;;15.26;64.97
78800;BME280;68148;55.328;86.106;2023-06-26T02:01:40;99605.34;;;15.24;64.61
78800;BME280;68148;55.328;86.106;2023-06-26T02:04:06;99613.31;;;15.24;64.69
78800;BME280;68148;55.328;86.106;2023-06-26T02:06:31;99605.19;;;15.19;64.85
78800;BME280;68148;55.328;86.106;2023-06-26T02:08:57;99606.88;;;15.14;63.91
78800;BME280;68148;55.328;86.106;2023-06-26T02:11:23;99604.34;;;15.25;64.18
78800;BME280;68148;55.328;86.106;2023-06-26T02:13:49;99606.25;;;15.37;63.70
78800;BME280;68148;55.328;86.106;2023-06-26T02:16:15;99599.44;;;15.22;63.35
78800;BME280;68148;55.328;86.106;2023-06-26T02:18:40;99610.06;;;15.22;63.18
78800;BME280;68148;55.328;86.106;2023-06-26T02:21:09;99611.16;;;15.15;63.60
78800;BME280;68148;55.328;86.106;2023-06-26T02:23:34;99605.69;;;15.10;64.03
78800;BME280;68148;55.328;86.106;2023-06-26T02:26:00;99611.25;;;15.08;63.91
78800;BME280;68148;55.328;86.106;2023-06-26T02:28:26;99612.38;;;14.94;64.37
78800;BME280;68148;55.328;86.106;2023-06-26T02:30:52;99608.75;;;14.88;64.71
78800;BME280;68148;55.328;86.106;2023-06-26T02:33:18;99607.31;;;14.86;65.04
78800;BME280;68148;55.328;86.106;2023-06-26T02:35:44;99610.72;;;14.74;66.29
78800;BME280;68148;55.328;86.106;2023-06-26T02:38:10;99605.66;;;14.66;66.37
78800;BME280;68148;55.328;86.106;2023-06-26T02:40:36;99608.63;;;14.76;65.77
78800;BME280;68148;55.328;86.106;2023-06-26T02:43:01;99609.78;;;14.62;66.32
78800;BME280;68148;55.328;86.106;2023-06-26T02:45:27;99608.47;;;14.40;67.05
78800;BME280;68148;55.328;86.106;2023-06-26T02:47:53;99618.94;;;14.35;66.70
78800;BME280;68148;55.328;86.106;2023-06-26T02:50:19;99610.59;;;14.24;67.39
78800;BME280;68148;55.328;86.106;2023-06-26T02:52:45;99620.56;;;14.29;67.41
78800;BME280;68148;55.328;86.106;2023-06-26T02:55:12;99614.03;;;14.32;67.24
78800;BME280;68148;55.328;86.106;2023-06-26T02:57:43;99621.34;;;14.36;67.21
78800;BME280;68148;55.328;86.106;2023-06-26T03:00:11;99613.63;;;14.35;67.08
78800;BME280;68148;55.328;86.106;2023-06-26T03:02:38;99611.88;;;14.47;66.66
78800;BME280;68148;55.328;86.106;2023-06-26T03:05:06;99619.63;;;14.55;66.74
78800;BME280;68148;55.328;86.106;2023-06-26T03:07:32;99610.66;;;14.56;66.65
78800;BME280;68148;55.328;86.106;2023-06-26T03:09:57;99606.25;;;14.68;65.80
78800;BME280;68148;55.328;86.106;2023-06-26T03:12:25;99615.75;;;14.83;65.29
78800;BME280;68148;55.328;86.106;2023-06-26T03:14:51;99607.50;;;14.91;65.57
78800;BME280;68148;55.328;86.106;2023-06-26T03:17:17;99615.53;;;15.09;64.56
78800;BME280;68148;55.328;86.106;2023-06-26T03:19:43;99618.63;;;15.24;64.06
78800;BME280;68148;55.328;86.106;2023-06-26T03:22:08;99619.75;;;15.35;63.62
78800;BME280;68148;55.328;86.106;2023-06-26T03:24:34;99620.28;;;15.62;62.79
78800;BME280;68148;55.328;86.106;2023-06-26T03:27:00;99619.88;;;15.84;62.82
78800;BME280;68148;55.328;86.106;2023-06-26T03:29:26;99621.75;;;16.13;62.31
78800;BME280;68148;55.328;86.106;2023-06-26T03:31:51;99621.38;;;16.40;61.26
78800;BME280;68148;55.328;86.106;2023-06-26T03:34:17;99604.19;;;16.66;60.45
78800;BME280;68148;55.328;86.106;2023-06-26T03:36:44;99610.72;;;16.82;59.15
78800;BME280;68148;55.328;86.106;2023-06-26T03:39:10;99615.44;;;16.26;58.83
78800;BME280;68148;55.328;86.106;2023-06-26T03:41:36;99610.72;;;16.40;59.46
78800;BME280;68148;55.328;86.106;2023-06-26T03:44:02;99607.00;;;16.71;58.11
78800;BME280;68148;55.328;86.106;2023-06-26T03:46:28;99616.41;;;16.32;58.27
78800;BME280;68148;55.328;86.106;2023-06-26T03:48:54;99612.72;;;16.14;58.79
78800;BME280;68148;55.328;86.106;2023-06-26T03:51:20;99616.41;;;16.32;59.16
78800;BME280;68148;55.328;86.106;2023-06-26T03:53:45;99611.25;;;16.60;58.59
78800;BME280;68148;55.328;86.106;2023-06-26T03:56:11;99613.69;;;16.62;57.37
78800;BME280;68148;55.328;86.106;2023-06-26T03:58:37;99614.97;;;16.71;58.25
78800;BME280;68148;55.328;86.106;2023-06-26T04:01:03;99612.59;;;16.81;58.19
78800;BME280;68148;55.328;86.106;2023-06-26T04:03:28;99614.13;;;17.00;57.30
78800;BME280;68148;55.328;86.106;2023-06-26T04:05:54;99604.84;;;17.03;57.39
78800;BME280;68148;55.328;86.106;2023-06-26T04:08:20;99612.38;;;17.18;56.65
78800;BME280;68148;55.328;86.106;2023-06-26T04:10:46;99612.84;;;17.26;55.94
78800;BME280;68148;55.328;86.106;2023-06-26T04:13:11;99601.72;;;17.06;56.54
78800;BME280;68148;55.328;86.106;2023-06-26T04:15:37;99602.28;;;17.08;56.52
78800;BME280;68148;55.328;86.106;2023-06-26T04:18:03;99603.44;;;17.12;56.53
78800;BME280;68148;55.328;86.106;2023-06-26T04:20:29;99599.75;;;17.13;56.49
78800;BME280;68148;55.328;86.106;2023-06-26T04:22:54;99597.41;;;17.28;56.28
78800;BME280;68148;55.328;86.106;2023-06-26T04:25:20;99602.38;;;17.37;56.15
78800;BME280;68148;55.328;86.106;2023-06-26T04:27:46;99587.91;;;17.33;54.82
78800;BME280;68148;55.328;86.106;2023-06-26T04:30:12;99595.53;;;17.52;54.81
78800;BME280;68148;55.328;86.106;2023-06-26T04:32:39;99597.34;;;17.75;55.17
78800;BME280;68148;55.328;86.106;2023-06-26T04:35:05;99590.00;;;17.94;55.18
78800;BME280;68148;55.328;86.106;2023-06-26T04:37:30;99590.03;;;18.11;53.83
78800;BME280;68148;55.328;86.106;2023-06-26T04:39:58;99586.97;;;18.19;53.70
78800;BME280;68148;55.328;86.106;2023-06-26T04:42:23;99587.00;;;18.36;53.99
78800;BME280;68148;55.328;86.106;2023-06-26T04:44:49;99581.94;;;18.51;52.95
78800;BME280;68148;55.328;86.106;2023-06-26T04:47:15;99585.50;;;18.57;51.52
78800;BME280;68148;55.328;86.106;2023-06-26T04:49:41;99581.19;;;18.56;51.95
78800;BME280;68148;55.328;86.106;2023-06-26T04:52:07;99575.81;;;18.22;52.22
78800;BME280;68148;55.328;86.106;2023-06-26T04:54:32;99582.78;;;18.23;51.66
78800;BME280;68148;55.328;86.106;2023-06-26T04:56:58;99574.63;;;18.47;51.77
78800;BME280;68148;55.328;86.106;2023-06-26T04:59:24;99570.75;;;18.55;51.04
78800;BME280;68148;55.328;86.106;2023-06-26T05:01:50;99566.16;;;18.50;50.07
78800;BME280;68148;55.328;86.106;2023-06-26T05:04:16;99571.03;;;18.70;48.30
78800;BME280;68148;55.328;86.106;2023-06-26T05:06:41;99565.53;;;18.76;47.80
78800;BME280;68148;55.328;86.106;2023-06-26T05:09:07;99566.47;;;19.04;46.16
78800;BME280;68148;55.328;86.106;2023-06-26T05:11:33;99565.63;;;19.42;45.39
78800;BME280;68148;55.328;86.106;2023-06-26T05:13:59;99561.03;;;19.82;44.71
78800;BME280;68148;55.328;86.106;2023-06-26T05:16:25;99556.22;;;20.06;43.85
78800;BME280;68148;55.328;86.106;2023-06-26T05:18:51;99556.66;;;19.97;42.08
78800;BME280;68148;55.328;86.106;2023-06-26T05:21:17;99549.34;;;20.15;42.69
78800;BME280;68148;55.328;86.106;2023-06-26T05:23:43;99548.81;;;19.91;42.88
78800;BME280;68148;55.328;86.106;2023-06-26T05:26:10;99546.09;;;19.86;41.42
78800;BME280;68148;55.328;86.106;2023-06-26T05:28:37;99556.06;;;19.68;41.08
78800;BME280;68148;55.328;86.106;2023-06-26T05:31:03;99548.41;;;19.77;42.18
78800;BME280;68148;55.328;86.106;2023-06-26T05:33:29;99540.91;;;20.33;40.50
78800;BME280;68148;55.328;86.106;2023-06-26T05:35:55;99542.91;;;20.43;39.54
78800;BME280;68148;55.328;86.106;2023-06-26T05:38:21;99538.75;;;20.57;40.18
78800;BME280;68148;55.328;86.106;2023-06-26T05:40:48;99542.78;;;20.00;40.49
78800;BME280;68148;55.328;86.106;2023-06-26T05:43:14;99533.09;;;19.99;41.36
78800;BME280;68148;55.328;86.106;2023-06-26T05:45:40;99527.06;;;20.41;41.32
78800;BME280;68148;55.328;86.106;2023-06-26T05:48:06;99540.13;;;20.33;40.64
78800;BME280;68148;55.328;86.106;2023-06-26T05:50:32;99530.41;;;20.54;41.36
78800;BME280;68148;55.328;86.106;2023-06-26T05:52:58;99526.03;;;20.80;41.32
78800;BME280;68148;55.328;86.106;2023-06-26T05:55:24;99529.00;;;20.83;40.39
78800;BME280;68148;55.328;86.106;2023-06-26T05:57:51;99526.50;;;20.71;41.06
78800;BME280;68148;55.328;86.106;2023-06-26T06:00:17;99516.09;;;20.80;39.92
78800;BME280;68148;55.328;86.106;2023-06-26T06:02:43;99518.63;;;20.97;40.18
78800;BME280;68148;55.328;86.106;2023-06-26T06:05:09;99509.84;;;21.12;39.90
78800;BME280;68148;55.328;86.106;2023-06-26T06:07:35;99516.84;;;20.70;39.51
78800;BME280;68148;55.328;86.106;2023-06-26T06:10:03;99504.03;;;20.78;40.17
78800;BME280;68148;55.328;86.106;2023-06-26T06:12:29;99505.97;;;20.92;40.36
78800;BME280;68148;55.328;86.106;2023-06-26T06:14:56;99505.09;;;21.29;39.80
78800;BME280;68148;55.328;86.106;2023-06-26T06:17:22;99500.88;;;21.43;39.33
78800;BME280;68148;55.328;86.106;2023-06-26T06:19:49;99506.22;;;21.33;39.00
78800;BME280;68148;55.328;86.106;2023-06-26T06:22:15;99501.09;;;21.37;38.89
78800;BME280;68148;55.328;86.106;2023-06-26T06:24:41;99499.72;;;21.29;38.82
78800;BME280;68148;55.328;86.106;2023-06-26T06:27:07;99504.97;;;21.66;38.84
78800;BME280;68148;55.328;86.106;2023-06-26T06:29:32;99504.22;;;21.91;38.32
78800;BME280;68148;55.328;86.106;2023-06-26T06:31:58;99499.38;;;21.83;37.84
78800;BME280;68148;55.328;86.106;2023-06-26T06:34:24;99494.84;;;21.99;37.87
78800;BME280;68148;55.328;86.106;2023-06-26T06:36:50;99488.38;;;21.90;37.00
78800;BME280;68148;55.328;86.106;2023-06-26T06:39:16;99492.66;;;21.86;37.38
78800;BME280;68148;55.328;86.106;2023-06-26T06:41:42;99487.53;;;21.74;36.45
78800;BME280;68148;55.328;86.106;2023-06-26T06:44:08;99482.91;;;21.49;37.25
78800;BME280;68148;55.328;86.106;2023-06-26T06:46:34;99486.16;;;21.51;36.92
78800;BME280;68148;55.328;86.106;2023-06-26T06:49:00;99487.22;;;21.55;37.23
78800;BME280;68148;55.328;86.106;2023-06-26T06:51:26;99482.44;;;21.88;37.30
78800;BME280;68148;55.328;86.106;2023-06-26T06:53:52;99479.28;;;22.21;37.54
78800;BME280;68148;55.328;86.106;2023-06-26T06:56:18;99476.56;;;22.06;36.83
78800;BME280;68148;55.328;86.106;2023-06-26T06:58:44;99476.06;;;22.30;37.05
78800;BME280;68148;55.328;86.106;2023-06-26T07:01:10;99470.13;;;22.43;36.75
78800;BME280;68148;55.328;86.106;2023-06-26T07:03:36;99463.69;;;22.49;36.79
78800;BME280;68148;55.328;86.106;2023-06-26T07:06:02;99456.16;;;22.20;36.76
78800;BME280;68148;55.328;86.106;2023-06-26T07:08:27;99464.19;;;22.61;36.56
78800;BME280;68148;55.328;86.106;2023-06-26T07:10:53;99463.59;;;22.95;35.11
78800;BME280;68148;55.328;86.106;2023-06-26T07:13:19;99464.53;;;23.24;33.51
78800;BME280;68148;55.328;86.106;2023-06-26T07:15:45;99450.44;;;22.83;32.90
78800;BME280;68148;55.328;86.106;2023-06-26T07:18:11;99461.53;;;22.36;33.50
78800;BME280;68148;55.328;86.106;2023-06-26T07:20:37;99455.09;;;22.37;33.92
78800;BME280;68148;55.328;86.106;2023-06-26T07:23:03;99449.19;;;22.40;34.32
78800;BME280;68148;55.328;86.106;2023-06-26T07:25:28;99452.41;;;22.37;35.47
78800;BME280;68148;55.328;86.106;2023-06-26T07:27:54;99450.69;;;22.82;33.20
78800;BME280;68148;55.328;86.106;2023-06-26T07:30:20;99449.09;;;22.75;34.17
78800;BME280;68148;55.328;86.106;2023-06-26T07:32:46;99447.16;;;22.86;33.47
78800;BME280;68148;55.328;86.106;2023-06-26T07:35:12;99445.63;;;22.70;34.11
78800;BME280;68148;55.328;86.106;2023-06-26T07:37:38;99445.13;;;21.86;33.92
78800;BME280;68148;55.328;86.106;2023-06-26T07:40:04;99438.41;;;21.89;36.13
78800;BME280;68148;55.328;86.106;2023-06-26T07:42:30;99474.66;;;21.03;38.92
78800;BME280;68148;55.328;86.106;2023-06-26T07:44:56;99473.59;;;20.24;40.79
78800;BME280;68148;55.328;86.106;2023-06-26T07:47:21;99467.88;;;19.84;41.93
78800;BME280;68148;55.328;86.106;2023-06-26T07:49:47;99460.31;;;19.54;42.57
78800;BME280;68148;55.328;86.106;2023-06-26T07:52:14;99449.66;;;19.32;42.07
78800;BME280;68148;55.328;86.106;2023-06-26T07:54:40;99481.69;;;19.26;42.01
78800;BME280;68148;55.328;86.106;2023-06-26T07:57:07;99481.34;;;18.79;42.15
78800;BME280;68148;55.328;86.106;2023-06-26T07:59:33;99472.78;;;18.43;43.23
78800;BME280;68148;55.328;86.106;2023-06-26T08:01:59;99490.34;;;18.56;42.12
78800;BME280;68148;55.328;86.106;2023-06-26T08:04:26;99486.66;;;18.62;42.29
78800;BME280;68148;55.328;86.106;2023-06-26T08:06:55;99485.66;;;18.80;41.91
78800;BME280;68148;55.328;86.106;2023-06-26T08:09:23;99474.41;;;19.00;41.54
78800;BME280;68148;55.328;86.106;2023-06-26T08:11:50;99461.16;;;19.32;41.88
78800;BME280;68148;55.328;86.106;2023-06-26T08:14:16;99465.81;;;19.64;41.94
78800;BME280;68148;55.328;86.106;2023-06-26T08:16:43;99451.97;;;20.04;42.03
78800;BME280;68148;55.328;86.106;2023-06-26T08:19:09;99448.53;;;20.46;40.78
78800;BME280;68148;55.328;86.106;2023-06-26T08:21:35;99459.94;;;20.63;40.59
78800;BME280;68148;55.328;86.106;2023-06-26T08:24:02;99457.63;;;20.77;40.14
78800;BME280;68148;55.328;86.106;2023-06-26T08:26:28;99453.31;;;21.29;39.95
78800;BME280;68148;55.328;86.106;2023-06-26T08:28:54;99447.47;;;21.52;37.53
78800;BME280;68148;55.328;86.106;2023-06-26T08:31:19;99448.59;;;21.87;35.38
78800;BME280;68148;55.328;86.106;2023-06-26T08:33:45;99444.34;;;22.16;34.41
78800;BME280;68148;55.328;86.106;2023-06-26T08:36:11;99442.69;;;22.46;35.40
78800;BME280;68148;55.328;86.106;2023-06-26T08:38:37;99438.31;;;22.81;33.41
78800;BME280;68148;55.328;86.106;2023-06-26T08:41:04;99432.47;;;22.48;32.81
78800;BME280;68148;55.328;86.106;2023-06-26T08:43:30;99445.81;;;22.89;32.61
78800;BME280;68148;55.328;86.106;2023-06-26T08:45:56;99444.75;;;22.95;32.54
78800;BME280;68148;55.328;86.106;2023-06-26T08:48:23;99431.91;;;22.56;32.46
78800;BME280;68148;55.328;86.106;2023-06-26T08:50:55;99441.22;;;22.99;32.31
78800;BME280;68148;55.328;86.106;2023-06-26T08:56:18;99437.25;;;23.41;32.00
78800;BME280;68148;55.328;86.106;2023-06-26T08:58:45;99435.19;;;23.28;30.97
78800;BME280;68148;55.328;86.106;2023-06-26T09:01:11;99428.69;;;22.59;33.05
78800;BME280;68148;55.328;86.106;2023-06-26T09:03:38;99435.28;;;23.13;32.66
78800;BME280;68148;55.328;86.106;2023-06-26T09:06:03;99429.50;;;23.35;32.33
78800;BME280;68148;55.328;86.106;2023-06-26T09:08:32;99422.47;;;23.39;31.98
78800;BME280;68148;55.328;86.106;2023-06-26T09:10:58;99427.16;;;23.62;31.55
78800;BME280;68148;55.328;86.106;2023-06-26T09:13:24;99421.47;;;23.74;31.35
78800;BME280;68148;55.328;86.106;2023-06-26T09:15:53;99423.38;;;23.63;31.62
78800;BME280;68148;55.328;86.106;2023-06-26T09:18:20;99425.00;;;23.69;31.80
78800;BME280;68148;55.328;86.106;2023-06-26T09:20:46;99422.72;;;23.87;32.06
78800;BME280;68148;55.328;86.106;2023-06-26T09:23:12;99427.19;;;24.02;31.44
78800;BME280;68148;55.328;86.106;2023-06-26T09:25:40;99429.13;;;23.96;30.67
78800;BME280;68148;55.328;86.106;2023-06-26T09:28:06;99424.66;;;24.15;31.28
78800;BME280;68148;55.328;86.106;2023-06-26T09:30:33;99421.41;;;24.13;29.18
78800;BME280;68148;55.328;86.106;2023-06-26T09:33:19;99431.25;;;23.55;30.61
78800;BME280;68148;55.328;86.106;2023-06-26T09:35:46;99432.88;;;23.56;31.91
78800;BME280;68148;55.328;86.106;2023-06-26T09:38:13;99441.78;;;23.02;33.05
78800;BME280;68148;55.328;86.106;2023-06-26T09:40:39;99437.16;;;23.07;32.82
78800;BME280;68148;55.328;86.106;2023-06-26T09:43:07;99431.53;;;23.04;32.69
78800;BME280;68148;55.328;86.106;2023-06-26T09:45:34;99433.47;;;22.93;33.08
78800;BME280;68148;55.328;86.106;2023-06-26T09:48:01;99431.28;;;23.00;32.71
78800;BME280;68148;55.328;86.106;2023-06-26T09:50:27;99435.28;;;23.08;32.74
78800;BME280;68148;55.328;86.106;2023-06-26T09:52:53;99427.56;;;22.81;32.84
78800;BME280;68148;55.328;86.106;2023-06-26T09:55:19;99425.16;;;22.79;32.80
78800;BME280;68148;55.328;86.106;2023-06-26T09:57:47;99425.19;;;22.59;32.53
78800;BME280;68148;55.328;86.106;2023-06-26T10:00:13;99426.25;;;22.63;32.67
78800;BME280;68148;55.328;86.106;2023-06-26T10:02:39;99427.63;;;22.50;32.33
78800;BME280;68148;55.328;86.106;2023-06-26T10:05:05;99424.94;;;22.55;31.85
78800;BME280;68148;55.328;86.106;2023-06-26T10:07:32;99419.84;;;22.54;31.77
78800;BME280;68148;55.328;86.106;2023-06-26T10:09:58;99416.03;;;22.65;32.19
78800;BME280;68148;55.328;86.106;2023-06-26T10:12:30;99417.38;;;22.67;32.51
78800;BME280;68148;55.328;86.106;2023-06-26T10:14:57;99411.50;;;22.50;32.68
78800;BME280;68148;55.328;86.106;2023-06-26T10:17:25;99418.78;;;22.44;31.79
78800;BME280;68148;55.328;86.106;2023-06-26T10:19:53;99416.34;;;22.43;32.64
78800;BME280;68148;55.328;86.106;2023-06-26T10:22:20;99409.94;;;22.18;32.79
78800;BME280;68148;55.328;86.106;2023-06-26T10:24:48;99437.06;;;21.86;35.44
78800;BME280;68148;55.328;86.106;2023-06-26T10:27:25;99435.47;;;21.02;37.70
78800;BME280;68148;55.328;86.106;2023-06-26T10:29:54;99424.25;;;20.58;39.12
78800;BME280;68148;55.328;86.106;2023-06-26T10:32:24;99444.44;;;20.70;38.81
78800;BME280;68148;55.328;86.106;2023-06-26T10:34:51;99456.34;;;20.47;39.43
78800;BME280;68148;55.328;86.106;2023-06-26T10:37:18;99459.72;;;20.33;39.98
78800;BME280;68148;55.328;86.106;2023-06-26T10:39:49;99460.16;;;20.19;39.88
78800;BME280;68148;55.328;86.106;2023-06-26T10:42:16;99456.84;;;20.07;40.71
78800;BME280;68148;55.328;86.106;2023-06-26T10:44:46;99459.78;;;20.06;41.02
78800;BME280;68148;55.328;86.106;2023-06-26T10:47:32;99459.22;;;20.36;40.48
78800;BME280;68148;55.328;86.106;2023-06-26T10:52:42;99464.09;;;20.12;40.96
78800;BME280;68148;55.328;86.106;2023-06-26T10:55:08;99448.16;;;20.27;40.64
78800;BME280;68148;55.328;86.106;2023-06-26T10:57:36;99446.44;;;20.16;41.21
78800;BME280;68148;55.328;86.106;2023-06-26T11:00:11;99456.03;;;20.39;40.91
78800;BME280;68148;55.328;86.106;2023-06-26T11:02:49;99454.66;;;20.73;40.25
78800;BME280;68148;55.328;86.106;2023-06-26T11:05:24;99446.91;;;20.77;40.08
78800;BME280;68148;55.328;86.106;2023-06-26T11:08:08;99443.50;;;20.97;40.63
78800;BME280;68148;55.328;86.106;2023-06-26T11:10:53;99439.44;;;21.57;38.56
78800;BME280;68148;55.328;86.106;2023-06-26T11:13:20;99438.13;;;21.95;38.14
78800;BME280;68148;55.328;86.106;2023-06-26T11:15:47;99435.19;;;22.02;36.58
78800;BME280;68148;55.328;86.106;2023-06-26T11:18:14;99427.41;;;22.21;35.86
78800;BME280;68148;55.328;86.106;2023-06-26T11:20:40;99430.09;;;22.26;35.20
78800;BME280;68148;55.328;86.106;2023-06-26T11:23:07;99426.56;;;22.31;35.87
78800;BME280;68148;55.328;86.106;2023-06-26T11:25:37;99422.78;;;22.47;33.98
78800;BME280;68148;55.328;86.106;2023-06-26T11:28:04;99426.00;;;22.59;34.70
78800;BME280;68148;55.328;86.106;2023-06-26T11:30:32;99425.91;;;22.95;33.52
78800;BME280;68148;55.328;86.106;2023-06-26T11:33:08;99414.72;;;23.27;33.01
78800;BME280;68148;55.328;86.106;2023-06-26T11:35:34;99412.19;;;23.46;33.20
78800;BME280;68148;55.328;86.106;2023-06-26T11:38:01;99417.44;;;23.71;33.15
78800;BME280;68148;55.328;86.106;2023-06-26T11:40:27;99415.16;;;23.89;30.47
78800;BME280;68148;55.328;86.106;2023-06-26T11:42:53;99408.88;;;24.28;30.83
78800;BME280;68148;55.328;86.106;2023-06-26T11:45:19;99403.09;;;24.15;29.96
78800;BME280;68148;55.328;86.106;2023-06-26T11:47:46;99410.59;;;24.47;31.34
78800;BME280;68148;55.328;86.106;2023-06-26T11:50:18;99399.00;;;24.47;30.80
78800;BME280;68148;55.328;86.106;2023-06-26T11:52:44;99401.59;;;24.28;29.45
78800;BME280;68148;55.328;86.106;2023-06-26T11:55:10;99405.63;;;24.31;30.05
78800;BME280;68148;55.328;86.106;2023-06-26T11:57:37;99408.75;;;24.43;29.45
78800;BME280;68148;55.328;86.106;2023-06-26T12:00:13;99402.09;;;24.83;28.35
78800;BME280;68148;55.328;86.106;2023-06-26T12:02:39;99404.75;;;24.88;28.87
78800;BME280;68148;55.328;86.106;2023-06-26T12:05:06;99413.41;;;24.37;28.72
78800;BME280;68148;55.328;86.106;2023-06-26T12:07:32;99404.88;;;24.54;29.54
78800;BME280;68148;55.328;86.106;2023-06-26T12:09:58;99405.25;;;24.66;28.84
78800;BME280;68148;55.328;86.106;2023-06-26T12:12:25;99403.22;;;24.58;29.08
78800;BME280;68148;55.328;86.106;2023-06-26T12:14:51;99400.09;;;24.17;28.80
78800;BME280;68148;55.328;86.106;2023-06-26T12:17:17;99402.81;;;24.46;29.36
78800;BME280;68148;55.328;86.106;2023-06-26T12:19:48;99399.34;;;24.88;28.93
78800;BME280;68148;55.328;86.106;2023-06-26T12:22:14;99397.59;;;24.55;29.04
78800;BME280;68148;55.328;86.106;2023-06-26T12:24:40;99398.09;;;24.28;28.99
78800;BME280;68148;55.328;86.106;2023-06-26T12:27:10;99399.53;;;24.20;28.73
78800;BME280;68148;55.328;86.106;2023-06-26T12:29:37;99396.50;;;24.56;29.14
78800;BME280;68148;55.328;86.106;2023-06-26T12:32:03;99402.38;;;24.58;29.06
78800;BME280;68148;55.328;86.106;2023-06-26T12:34:31;99398.09;;;23.59;30.75
78800;BME280;68148;55.328;86.106;2023-06-26T12:37:11;99388.53;;;23.82;31.16
78800;BME280;68148;55.328;86.106;2023-06-26T12:39:51;99399.34;;;24.11;30.42
78800;BME280;68148;55.328;86.106;2023-06-26T12:42:22;99406.38;;;24.07;31.98
78800;BME280;68148;55.328;86.106;2023-06-26T12:44:48;99407.16;;;23.79;32.94
78800;BME280;68148;55.328;86.106;2023-06-26T12:47:16;99404.22;;;23.75;33.79
78800;BME280;68148;55.328;86.106;2023-06-26T12:49:43;99407.78;;;23.65;34.15
78800;BME280;68148;55.328;86.106;2023-06-26T12:52:12;99400.28;;;23.57;34.71
78800;BME280;68148;55.328;86.106;2023-06-26T12:54:39;99399.53;;;23.46;34.82
78800;BME280;68148;55.328;86.106;2023-06-26T12:57:06;99392.44;;;23.16;35.66
78800;BME280;68148;55.328;86.106;2023-06-26T12:59:33;99395.72;;;23.03;35.67
78800;BME280;68148;55.328;86.106;2023-06-26T13:02:06;99388.78;;;22.97;35.46
78800;BME280;68148;55.328;86.106;2023-06-26T13:04:51;99395.81;;;22.83;35.29